Martes, 22 de Julio del 2014

portal contactenos mapa del sitio buscar Revisar Correo Corporativo

|Reporte METAR por Reginal » ||Reporte TAF por Reginal » ||Reporte METAR, TAF y SIN覲TICO »

Reporte METAR por Regional

|| La Paz || Santa Cruz || Cochabamba || Beni - Pando ||

Informe METAR emitido cada hora.

Regional La Paz

ESTACIÓN

AEROPUERTO

HORA UTC

DESCRIPCIÓN

SLRY

Reyes

14-18S|67-21W

22:00

SLRY 212200Z 34006KT 9999 NSC 29/19 Q1012 A2989 HR55 RWY HUM OPR 1 000M=

SLRQ

Rurrenabaque

14-25S|67-29W

22:00

SLRQ 212200Z 00000KT 9999 FEW023 26/24 Q1010 A2985 HR85=

SLAP

Apolo

14-44S|68-24W

19:00

SLAP 301900Z WO ATTN=

SLSB

San Borja

14-51S|66-44W

23:00

SLSB 212300Z 00000KT 9999 NSC 25/21 Q1011 A2986 HR77 RWY NML=

SLLP

Internaci贸nal El Alto

16-08S|68-10W

09:00

SLLP 220900Z 32005KT 9999 NSC M00/M10 Q1036 A3060 626.9 HR49 NOSIG=

SLCN

Chara帽a

17-35S|69-25W

-

SLCN WO ATTN=

SLOR

Oruro

17-57S|67-04W

23:00

SLOR 212300Z 18008KT 9999 FEW017 10/M02 Q1033 A3053 655.1 HR43=

SLUY

Uyuni

20-27S|62-52W

02:00

SLUY 220200Z 07003KT 9999 NSC M02/M11 Q1033 A3052 658.0 HR49=

Regional Cochabamba

ESTACIÓN

AEROPUERTO

HORA UTC

DESCRIPCIÓN

SLCB

Cochabamba

17-25S|66-10W

09:00

SLCB 220900Z 00000KT 9999 NSC 06/02 Q1024 A3025 750.9 HR76 FU NOSIG=

SLSU

Sucre

19-00S|65-17W

23:00

SLSU 212300Z 29004KT 9999 NSC 16/M04 Q1025 A3028 HR25=

SLPO

Potos铆

19-32S|65-43W

21:00

SLPO 212100Z 04014KT 9999 NSC 12/M07 Q1035 A3056 HR25=

SLAG

Monteagudo

19-49S|63-58W

21:00

SLAG 212100Z 00000KT 9999 NSC 28/16 Q1010 A2983 HR48 RWY CLSD=

SLVM

Villamontes

21-15S|63-24W

21:00

SLVM 212100Z 00000KT 9999 NSC 28/15 Q1004 A2965 HR45=

SLTJ

Tarija

21-33S|64-42W

23:00

SLTJ 212300Z 13006KT 9999 NSC 21/06 Q1012 A2989 HR37=

SLYA

Yacuiba

21-57S|63-39W

23:00

SLYA 212300Z 00000KT 9999 NSC 18/16 Q1007 A2974 HR88=

SLBJ

Bermejo

22-46S|64-18W

21:00

SLBJ 212100Z 00000KT 9999 NSC 27/18 Q1007 A2974 HR58=

Regional Santa Cruz

ESTACIÓN

AEROPUERTO

HORA UTC

DESCRIPCIÓN

SLAS

Ascenci贸n de Guarayos

15-55S|63-09W

23:00

SLAS 212300Z 00000KT 9999 NSC 24/21 Q1012 A2988 HR84 RWY NML=

SLCP

Concepci贸n

16-08S|62-01W

22:00

SLCP 212200Z 34006KT 9999 NSC 26/18 Q1014 A2994 HR58 RWY NML=

SLJV

San Javier

16-16S|62-28W

22:00

SLJV 212200Z 36008KT 9999 NSC 24/19 Q1011 A2985 HR73 RWY NML=

SLTI

San Mat铆as

16-20S|58-24W

22:00

SLTI 212200Z 00000KT 9999 NSC 28/24 Q1016 A3000 HR78 RWY NML=

SLSI

San Ignacio de Velasco

16-23S|60-57W

23:00

SLSI 212300Z 00000KT 9999 NSC 26/23 Q1012 A2988 HR84 RWY NML=

SLVR

Internaci贸nal Viru Viru

17-38S|63-08W

09:00

SLVR 220900Z 33012G22KT 9999 NSC 21/19 Q1010 A2983 HR87 NOSIG =

SLET

El Trompillo

17-48S|63-10W

23:00

SLET 212300Z 32011G23KT 9999 FEW017 BKN200 24/17 Q1009 A2981 HR66 NOSIG=

SLJE

San Jos茅 de Chiquitos

17-49S|60-44W

22:00

SLJE 212200Z 00000KT 9999 FEW017 27/18 Q1012 A2988 HR59 RWY NML =

SLRB

Robor茅

18-19S|59-45W

23:00

SLRB 212300Z 36006KT 9999 NSC 25/24 Q1013 A2991 HR90 RWY NML=

SLVG

Valle Grande

18-28S|64-05W

21:00

SLVG 212100Z 36005KT 9999 NSC 20/11 Q1019 A3009 HR51 RWY NML=

SLPS

Puerto Su谩rez

18-58S|57-49W

23:00

SLPS 212300Z 09004KT 9999 NSC 24/19 Q1011 A2986 HR77=

SLCA

Camiri

20-00S|63-31W

09:00

SLCA 220900Z 00000KT 9999 NSC 11/10 Q1010 A2983 HR94 RWY NML=

Regional Beni

ESTACIÓN

AEROPUERTO

HORA UTC

DESCRIPCIÓN

SLGM

Guayaramer铆n

10-49S|65-20W

23:00

SLGM 212300Z 36004KT 9999 NSC 28/23 Q1011 A2988 HR72=

SLRI

Riberalta

11-00S|66-04W

09:00

SLRI 220900Z 00000KT 5000 FU NSC 22/21 Q1012 A2991 HR95=

SLCO

Cobija

11-02S|68-47W

22:00

SLCO 212200Z 35005KT 9999 FEW023 29/22 Q1012 A2990 985.1 HR64=

SLJO

San Joaquin

13-03S|64-39W

22:00

SLJO 212200Z 00000KT 9999 FEW020 30/22 Q1011 A2988 HR61 RWY NML=

SLMG

San Magdalena

13-15S|64-03W

23:00

SLMG 212300Z 00000KT 9999 FEW020 26/23 Q1011 A2985 HR80 RWY NML=

SLRA

San Ram贸n

13-15S|64-36W

22:00

SLRA 212200Z 32005KT 9999 FEW017 30/21 Q1012 A2989 HR59 RWY NML=

SLBU

Baures

13-39S|63-42W

22:00

SLBU 212200Z 00000KT 9999 FEW020 30/23 Q1011 A2988 HR65 RWY NML=

SLSA

Santa Ana de Yacuma

13-45S|65-26W

23:00

SLSA 212300Z 32004KT 9999 NSC 26/21 Q1011 A2986 HR75=

SLSR

Santa Rosa

14-04S|66-47W

22:00

SLSR 212200Z 00000KT 9999 NSC 28/22 Q1007 A2975 HR69 RWY NML=

SLTR

Trinidad

14-49S|64-54W

09:00

SLTR 220900Z 36003KT 9999 NSC 17/17 Q1012 A2989 993.5 HR96 CI NOSIG=

SLSM

San Ignacio de Moxos

14-57S|65-38W

22:00

SLSM 212200Z 00000KT 9999 NSC 27/22 Q1010 A2984 HR72 RWY OPR C206=